Time;durP1;ratioP1;P1;durP2;ratioP2;P2;SDS_P1;SDS_P2;PMS_P1;PMS_P2;Temp;Humidity;BMP_temperature;BMP_pressure;BME280_temperature;BME280_humidity;BME280_pressure;Samples;Min_cycle;Max_cycle;Signal;HPM_P1;HPM_P2
2023/03/24 00:01:03;;;;;;;0.00;0.00;;;;;;;6.91;100.00;98362.66;5003212;28;20498;-76
2023/03/24 00:03:30;;;;;;;0.00;0.00;;;;;;;6.94;100.00;98384.59;4981048;28;20167;-77
2023/03/24 00:06:00;;;;;;;0.10;0.10;;;;;;;6.86;100.00;98368.94;4972474;28;20506;-78
2023/03/24 00:08:29;;;;;;;0.00;0.00;;;;;;;6.78;100.00;98373.13;4990577;28;20026;-77
2023/03/24 00:10:59;;;;;;;0.00;0.00;;;;;;;6.85;100.00;98397.22;4997624;28;20081;-77
2023/03/24 00:13:24;;;;;;;0.08;0.08;;;;;;;6.84;100.00;98395.59;4991353;28;20018;-77
2023/03/24 00:15:50;;;;;;;0.00;0.00;;;;;;;6.81;100.00;98393.47;4990912;28;20041;-77
2023/03/24 00:18:15;;;;;;;0.00;0.00;;;;;;;6.73;100.00;98385.94;4992530;28;20050;-77
2023/03/24 00:20:41;;;;;;;0.00;0.00;;;;;;;6.74;100.00;98401.97;4990830;28;20542;-76
2023/03/24 00:23:06;;;;;;;0.00;0.00;;;;;;;6.70;100.00;98403.66;4968662;28;20034;-76
2023/03/24 00:25:34;;;;;;;0.00;0.00;;;;;;;6.63;100.00;98405.91;4984462;28;20650;-76
2023/03/24 00:28:01;;;;;;;0.00;0.00;;;;;;;6.60;100.00;98395.59;4967262;28;20036;-77
2023/03/24 00:30:27;;;;;;;0.00;0.00;;;;;;;6.58;100.00;98406.75;4991526;28;20594;-77
2023/03/24 00:32:53;;;;;;;0.03;0.03;;;;;;;6.65;100.00;98409.13;4990875;28;20109;-76
2023/03/24 00:35:19;;;;;;;0.00;0.00;;;;;;;6.62;100.00;98409.72;4985907;28;20196;-76
2023/03/24 00:37:44;;;;;;;0.00;0.00;;;;;;;6.66;100.00;98415.38;4989464;28;20026;-77
2023/03/24 00:40:15;;;;;;;0.00;0.00;;;;;;;6.59;100.00;98413.03;4981448;28;20038;-76
2023/03/24 00:42:44;;;;;;;0.10;0.10;;;;;;;6.54;100.00;98423.91;4985558;28;20479;-77
2023/03/24 00:45:18;;;;;;;0.00;0.00;;;;;;;6.52;100.00;98415.28;4989012;28;20092;-76
2023/03/24 00:47:44;;;;;;;0.00;0.00;;;;;;;6.39;100.00;98406.69;4990717;28;20026;-77
2023/03/24 00:50:15;;;;;;;0.00;0.00;;;;;;;6.44;100.00;98422.94;4989587;28;20040;-77
2023/03/24 00:52:43;;;;;;;0.00;0.00;;;;;;;6.37;100.00;98419.75;4979628;28;20026;-76
2023/03/24 00:55:12;;;;;;;0.10;0.10;;;;;;;6.39;100.00;98431.13;4967564;28;20114;-77
2023/03/24 00:57:39;;;;;;;0.00;0.00;;;;;;;6.33;100.00;98429.56;4997025;28;21334;-77
2023/03/24 01:00:15;;;;;;;0.00;0.00;;;;;;;6.28;100.00;98432.34;4985905;28;20683;-76
2023/03/24 01:02:42;;;;;;;0.00;0.00;;;;;;;6.21;100.00;98431.88;4981136;28;20033;-76
2023/03/24 01:05:11;;;;;;;0.00;0.00;;;;;;;6.21;100.00;98438.09;4982357;28;20473;-76
2023/03/24 01:07:44;;;;;;;0.00;0.00;;;;;;;6.12;100.00;98428.97;4984666;28;20393;-77
2023/03/24 01:10:12;;;;;;;0.00;0.00;;;;;;;6.15;100.00;98444.69;4989721;28;20175;-76
2023/03/24 01:12:38;;;;;;;0.00;0.00;;;;;;;6.07;100.00;98446.09;4986668;28;20018;-78
2023/03/24 01:15:12;;;;;;;0.00;0.00;;;;;;;6.10;100.00;98442.81;4990137;28;20029;-78
2023/03/24 01:17:40;;;;;;;0.00;0.00;;;;;;;6.01;100.00;98444.50;4989664;28;20697;-78
2023/03/24 01:20:07;;;;;;;0.00;0.00;;;;;;;6.10;100.00;98448.25;4984200;28;20131;-78
2023/03/24 01:22:38;;;;;;;0.00;0.00;;;;;;;6.17;100.00;98457.97;4976606;28;20176;-78
2023/03/24 01:25:06;;;;;;;0.10;0.10;;;;;;;6.20;100.00;98446.53;4982835;28;20451;-78
2023/03/24 01:27:32;;;;;;;0.00;0.00;;;;;;;6.25;100.00;98460.03;4983526;28;20120;-78
2023/03/24 01:30:02;;;;;;;0.10;0.10;;;;;;;6.20;100.00;98457.38;4989876;28;20163;-78
2023/03/24 01:32:28;;;;;;;0.00;0.00;;;;;;;6.11;100.00;98458.00;4998863;28;20105;-78
2023/03/24 01:34:56;;;;;;;0.00;0.00;;;;;;;6.01;100.00;98441.00;4973067;28;20033;-76
2023/03/24 01:37:29;;;;;;;0.00;0.00;;;;;;;6.06;100.00;98460.75;4985973;28;20026;-77
2023/03/24 01:40:00;;;;;;;0.00;0.00;;;;;;;5.94;100.00;98455.69;4990969;28;20384;-78
2023/03/24 01:42:27;;;;;;;0.00;0.00;;;;;;;6.05;100.00;98470.00;4984639;28;20084;-78
2023/03/24 01:45:37;;;;;;;0.00;0.00;;;;;;;6.04;100.00;98473.00;4979081;28;20022;-78
2023/03/24 01:48:04;;;;;;;0.00;0.00;;;;;;;5.97;100.00;98470.59;5010084;28;20022;-78
2023/03/24 01:50:31;;;;;;;0.10;0.10;;;;;;;5.87;100.00;98466.03;4990110;28;20034;-78
2023/03/24 01:53:00;;;;;;;0.00;0.00;;;;;;;5.88;100.00;98464.13;4987345;28;20022;-77
2023/03/24 01:55:28;;;;;;;0.00;0.00;;;;;;;5.80;100.00;98465.53;4981590;28;20030;-79
2023/03/24 01:57:58;;;;;;;0.10;0.10;;;;;;;5.84;100.00;98482.06;4979278;28;20109;-78
2023/03/24 02:00:24;;;;;;;0.00;0.00;;;;;;;5.70;100.00;98474.56;4986229;28;20018;-77
2023/03/24 02:02:57;;;;;;;0.10;0.10;;;;;;;5.81;100.00;98488.03;4991365;28;20045;-78
2023/03/24 02:05:30;;;;;;;0.10;0.10;;;;;;;5.77;100.00;98490.53;5008314;28;20105;-78
2023/03/24 02:08:08;;;;;;;0.00;0.00;;;;;;;5.73;100.00;98492.97;4985607;28;20042;-78
2023/03/24 02:10:36;;;;;;;0.00;0.00;;;;;;;5.58;100.00;98484.94;5006409;28;20033;-78
2023/03/24 02:13:03;;;;;;;0.00;0.00;;;;;;;5.52;100.00;98486.88;4970521;28;20034;-77
2023/03/24 02:15:31;;;;;;;0.10;0.10;;;;;;;5.49;100.00;98495.56;4984860;28;20030;-77
2023/03/24 02:18:21;;;;;;;0.10;0.10;;;;;;;5.40;100.00;98492.63;4999897;28;20021;-77
2023/03/24 02:21:27;;;;;;;0.00;0.00;;;;;;;5.39;100.00;98504.56;4994814;28;20030;-78
2023/03/24 02:24:11;;;;;;;;;;;;;;;5.30;100.00;98510.84;5005390;28;21344;-78
2023/03/24 02:27:16;;;;;;;0.00;0.00;;;;;;;5.11;100.00;98491.69;4993255;28;19913;-77
2023/03/24 02:30:00;;;;;;;0.00;0.00;;;;;;;5.20;100.00;98506.28;4983646;28;20053;-78
2023/03/24 02:32:44;;;;;;;0.00;0.00;;;;;;;5.15;100.00;98503.59;5004740;28;20121;-78
2023/03/24 02:35:37;;;;;;;0.05;0.05;;;;;;;5.11;100.00;98518.78;5009153;28;20046;-78
2023/03/24 02:38:42;;;;;;;0.00;0.00;;;;;;;5.11;100.00;98511.47;5009694;28;20609;-78
2023/03/24 02:41:25;;;;;;;;;;;;;;;5.15;100.00;98514.44;4991838;28;20037;-77
2023/03/24 02:44:05;;;;;;;0.00;0.00;;;;;;;5.13;100.00;98516.63;4999470;28;19917;-78
2023/03/24 02:46:42;;;;;;;0.00;0.00;;;;;;;5.15;100.00;98514.44;4988680;28;20111;-76
2023/03/24 02:49:52;;;;;;;0.08;0.08;;;;;;;5.18;100.00;98508.44;5003562;28;20038;-77
2023/03/24 02:53:07;;;;;;;0.00;0.00;;;;;;;5.30;100.00;98517.09;4955348;28;20129;-78
2023/03/24 02:55:42;;;;;;;0.00;0.00;;;;;;;5.25;100.00;98515.19;4933389;28;20117;-77
2023/03/24 02:58:11;;;;;;;;;;;;;;;5.33;100.00;98516.53;5003460;28;20026;-77
2023/03/24 03:00:58;;;;;;;0.00;0.00;;;;;;;5.29;100.00;98517.38;4988982;28;20043;-78
2023/03/24 03:03:45;;;;;;;0.10;0.10;;;;;;;5.19;100.00;98510.09;4986260;28;20022;-77
2023/03/24 03:06:17;;;;;;;0.00;0.00;;;;;;;5.20;100.00;98522.56;4989460;28;20472;-77
2023/03/24 03:08:48;;;;;;;0.00;0.00;;;;;;;5.15;100.00;98511.72;4978720;28;20077;-78
2023/03/24 03:11:16;;;;;;;0.00;0.00;;;;;;;5.17;100.00;98528.50;4983589;28;20124;-78
2023/03/24 03:13:47;;;;;;;0.00;0.00;;;;;;;5.17;100.00;98523.06;4988509;28;20026;-78
2023/03/24 03:16:18;;;;;;;0.00;0.00;;;;;;;5.17;100.00;98517.66;4986339;28;20579;-78
2023/03/24 03:19:42;;;;;;;0.00;0.00;;;;;;;5.09;100.00;98507.41;4991441;28;20014;-79
2023/03/24 03:22:16;;;;;;;0.00;0.00;;;;;;;5.05;100.00;98504.44;4945643;28;20038;-78
2023/03/24 03:24:43;;;;;;;;;;;;;;;5.07;100.00;98516.63;4989642;28;20025;-78
2023/03/24 03:27:31;;;;;;;0.00;0.00;;;;;;;5.00;100.00;98513.38;4991189;28;19909;-78
2023/03/24 03:30:01;;;;;;;0.00;0.00;;;;;;;5.02;100.00;98511.22;4995320;28;20033;-78
2023/03/24 03:32:33;;;;;;;0.00;0.00;;;;;;;5.07;100.00;98513.91;4991283;28;20022;-78
2023/03/24 03:35:21;;;;;;;0.00;0.00;;;;;;;5.00;100.00;98507.97;5002171;28;20092;-78
2023/03/24 03:37:54;;;;;;;0.00;0.00;;;;;;;4.99;100.00;98500.91;4996159;28;20344;-78
2023/03/24 03:40:25;;;;;;;0.10;0.10;;;;;;;5.00;100.00;98521.50;4988647;28;20034;-76
2023/03/24 03:42:51;;;;;;;0.00;0.00;;;;;;;4.99;100.00;98508.25;4991655;28;20081;-77
2023/03/24 03:45:17;;;;;;;0.00;0.00;;;;;;;4.90;100.00;98503.38;4964694;28;20060;-76
2023/03/24 03:47:42;;;;;;;0.10;0.10;;;;;;;4.82;100.00;98511.25;4991588;28;20104;-76
2023/03/24 03:50:09;;;;;;;0.00;0.00;;;;;;;4.78;100.00;98516.44;4976430;28;20033;-77
2023/03/24 03:52:38;;;;;;;0.00;0.00;;;;;;;4.78;100.00;98510.22;4986158;28;20028;-78
2023/03/24 03:55:04;;;;;;;0.00;0.00;;;;;;;4.78;100.00;98513.72;4999457;28;20010;-76
2023/03/24 03:57:30;;;;;;;0.00;0.00;;;;;;;4.71;100.00;98511.28;4988796;28;20006;-76
2023/03/24 03:59:57;;;;;;;0.00;0.00;;;;;;;4.65;100.00;98511.59;4998595;28;20082;-76
2023/03/24 04:02:51;;;;;;;0.00;0.00;;;;;;;4.56;100.00;98508.63;4989116;28;20014;-77
2023/03/24 04:05:26;;;;;;;0.00;0.00;;;;;;;4.54;100.00;98519.75;5004145;28;20022;-77
2023/03/24 04:08:10;;;;;;;0.00;0.00;;;;;;;4.53;100.00;98520.81;5019456;28;20033;-77
2023/03/24 04:10:54;;;;;;;0.10;0.10;;;;;;;4.53;100.00;98530.84;4987759;28;20037;-77
2023/03/24 04:13:47;;;;;;;0.00;0.00;;;;;;;4.42;100.00;98511.06;4982645;28;20022;-77
2023/03/24 04:16:30;;;;;;;0.00;0.00;;;;;;;4.41;100.00;98523.00;5003584;28;20037;-77
2023/03/24 04:19:27;;;;;;;0.10;0.10;;;;;;;4.45;100.00;98536.78;5007712;28;20030;-76
2023/03/24 04:22:05;;;;;;;0.10;0.10;;;;;;;4.44;100.00;98533.28;4976040;28;20396;-76
2023/03/24 04:24:37;;;;;;;0.00;0.00;;;;;;;4.37;100.00;98535.44;4985562;28;20087;-76
2023/03/24 04:27:08;;;;;;;0.00;0.00;;;;;;;4.32;100.00;98541.69;4983475;28;20492;-76
2023/03/24 04:29:36;;;;;;;0.00;0.00;;;;;;;4.30;100.00;98530.28;4998023;28;20034;-78
2023/03/24 04:32:20;;;;;;;0.10;0.10;;;;;;;4.42;100.00;98529.22;4989951;28;20452;-77
2023/03/24 04:34:53;;;;;;;0.00;0.00;;;;;;;4.46;100.00;98541.13;4990679;28;20561;-77
2023/03/24 04:37:24;;;;;;;0.10;0.10;;;;;;;4.39;100.00;98551.41;5006626;28;20022;-77
2023/03/24 04:39:52;;;;;;;0.00;0.00;;;;;;;4.52;100.00;98553.56;4982537;28;20169;-76
2023/03/24 04:42:45;;;;;;;0.00;0.00;;;;;;;4.55;100.00;98544.91;4990534;28;20500;-77
2023/03/24 04:45:12;;;;;;;0.00;0.00;;;;;;;4.52;100.00;98546.25;4989838;28;20042;-78
2023/03/24 04:47:44;;;;;;;0.00;0.00;;;;;;;4.50;100.00;98553.03;4971363;28;20041;-77
2023/03/24 04:50:11;;;;;;;0.00;0.00;;;;;;;4.45;100.00;98544.91;5007850;28;20026;-78
2023/03/24 04:52:41;;;;;;;0.10;0.10;;;;;;;4.42;100.00;98545.47;4985048;28;20376;-78
2023/03/24 04:55:49;;;;;;;0.00;0.00;;;;;;;4.49;100.00;98559.53;4990535;28;20040;-77
2023/03/24 04:58:19;;;;;;;0.00;0.00;;;;;;;4.51;100.00;98560.06;4990160;28;20391;-77
2023/03/24 05:00:45;;;;;;;0.00;0.00;;;;;;;4.54;100.00;98548.69;4988848;28;20037;-76
2023/03/24 05:03:13;;;;;;;0.00;0.00;;;;;;;4.59;100.00;98554.09;4995594;28;20026;-77
2023/03/24 05:05:43;;;;;;;0.10;0.10;;;;;;;4.72;100.00;98561.66;5005525;28;20068;-77
2023/03/24 05:08:09;;;;;;;0.00;0.00;;;;;;;4.81;100.00;98559.22;4983126;28;20076;-78
2023/03/24 05:10:35;;;;;;;0.00;0.00;;;;;;;4.87;100.00;98568.16;4948634;28;20448;-76
2023/03/24 05:13:01;;;;;;;0.00;0.00;;;;;;;4.89;100.00;98569.50;4967537;28;20077;-76
2023/03/24 05:15:27;;;;;;;0.00;0.00;;;;;;;4.94;100.00;98559.75;4985697;28;20025;-76
2023/03/24 05:17:52;;;;;;;0.00;0.00;;;;;;;4.96;100.00;98552.94;4972781;28;20036;-76
2023/03/24 05:20:18;;;;;;;0.00;0.00;;;;;;;5.02;100.00;98560.00;4975502;28;20018;-78
2023/03/24 05:22:47;;;;;;;0.00;0.00;;;;;;;4.95;100.00;98554.06;4963479;28;20034;-78
2023/03/24 05:25:13;;;;;;;0.00;0.00;;;;;;;4.97;100.00;98549.16;4978645;28;20033;-78
2023/03/24 05:27:38;;;;;;;0.00;0.00;;;;;;;5.10;100.00;98557.81;4974719;28;20034;-78
2023/03/24 05:30:05;;;;;;;0.10;0.10;;;;;;;5.12;100.00;98555.63;4989581;28;20456;-77
2023/03/24 05:32:30;;;;;;;0.00;0.00;;;;;;;5.25;100.00;98572.09;4993987;28;20113;-78
2023/03/24 05:34:56;;;;;;;0.00;0.00;;;;;;;5.30;100.00;98565.03;4958396;28;20121;-78
2023/03/24 05:37:24;;;;;;;0.10;0.10;;;;;;;5.36;100.00;98570.19;4961579;28;20026;-77
2023/03/24 05:39:52;;;;;;;0.03;0.03;;;;;;;5.35;100.00;98555.00;4987983;28;20026;-77
2023/03/24 05:42:20;;;;;;;0.00;0.00;;;;;;;5.35;100.00;98557.69;4964233;28;20100;-78
2023/03/24 05:44:46;;;;;;;0.00;0.00;;;;;;;5.37;100.00;98560.97;4975218;28;20057;-77
2023/03/24 05:47:18;;;;;;;0.00;0.00;;;;;;;5.37;100.00;98560.97;4987370;28;20060;-78
2023/03/24 05:49:54;;;;;;;0.00;0.00;;;;;;;5.42;100.00;98554.72;4982738;28;20018;-78
2023/03/24 05:52:21;;;;;;;0.10;0.10;;;;;;;5.33;100.00;98543.63;4986035;28;20668;-77
2023/03/24 05:54:54;;;;;;;0.00;0.00;;;;;;;5.37;100.00;98547.41;4974547;28;20041;-77
2023/03/24 05:57:37;;;;;;;0.00;0.00;;;;;;;5.44;100.00;98554.44;4976083;28;20026;-78
2023/03/24 06:00:10;;;;;;;0.00;0.00;;;;;;;5.54;100.00;98570.66;4986676;28;20042;-77
2023/03/24 06:02:35;;;;;;;0.00;0.00;;;;;;;5.54;100.00;98581.50;4971674;28;20026;-78
2023/03/24 06:05:01;;;;;;;0.00;0.00;;;;;;;5.57;100.00;98580.94;4977513;28;20062;-78
2023/03/24 06:07:29;;;;;;;0.00;0.00;;;;;;;5.56;100.00;98571.16;5007964;28;20072;-78
2023/03/24 06:09:57;;;;;;;0.00;0.00;;;;;;;5.51;100.00;98571.22;4993061;28;20108;-77
2023/03/24 06:12:23;;;;;;;0.00;0.00;;;;;;;5.51;100.00;98565.78;4977463;28;20026;-77
2023/03/24 06:14:48;;;;;;;0.00;0.00;;;;;;;5.54;100.00;98573.38;4984599;28;20563;-78
2023/03/24 06:17:16;;;;;;;0.00;0.00;;;;;;;5.55;100.00;98577.69;4947385;28;20116;-78
2023/03/24 06:19:48;;;;;;;0.00;0.00;;;;;;;5.62;100.00;98582.81;5005652;28;20050;-79
2023/03/24 06:22:21;;;;;;;0.00;0.00;;;;;;;5.57;100.00;98568.19;4974270;28;20030;-78
2023/03/24 06:24:49;;;;;;;0.00;0.00;;;;;;;5.54;100.00;98559.81;4982666;28;20021;-78
2023/03/24 06:27:17;;;;;;;0.00;0.00;;;;;;;5.67;100.00;98578.19;5000137;28;20028;-78
2023/03/24 06:29:45;;;;;;;0.10;0.10;;;;;;;5.60;100.00;98572.25;5003080;28;20062;-77
2023/03/24 06:32:10;;;;;;;0.00;0.00;;;;;;;5.73;100.00;98589.81;4992506;28;20061;-76
2023/03/24 06:34:37;;;;;;;0.00;0.00;;;;;;;5.77;100.00;98590.88;4955597;28;20100;-79
2023/03/24 06:37:03;;;;;;;0.05;0.05;;;;;;;5.74;100.00;98570.53;4980882;28;20120;-78
2023/03/24 06:39:28;;;;;;;0.00;0.00;;;;;;;5.80;100.00;98587.59;5006809;28;20508;-77
2023/03/24 06:41:54;;;;;;;0.00;0.00;;;;;;;5.87;100.00;98595.41;4984313;28;20132;-78
2023/03/24 06:44:20;;;;;;;0.00;0.00;;;;;;;5.85;100.00;98576.72;4984193;28;20037;-77
2023/03/24 06:46:46;;;;;;;0.00;0.00;;;;;;;5.91;100.00;98570.19;4990257;28;20026;-78
2023/03/24 06:49:11;;;;;;;0.00;0.00;;;;;;;6.03;100.00;98586.16;4971445;28;20042;-77
2023/03/24 06:51:37;;;;;;;0.00;0.00;;;;;;;6.02;100.00;98581.81;4974633;28;20034;-77
2023/03/24 06:54:02;;;;;;;0.00;0.00;;;;;;;5.98;100.00;98559.03;4968614;28;20034;-76
2023/03/24 06:56:29;;;;;;;0.00;0.00;;;;;;;6.17;100.00;98597.19;4995775;28;20121;-78
2023/03/24 06:58:55;;;;;;;0.00;0.00;;;;;;;6.04;100.00;98567.97;4990113;28;20113;-77
2023/03/24 07:01:21;;;;;;;0.00;0.00;;;;;;;6.28;100.00;98584.38;4990549;28;20045;-77
2023/03/24 07:03:47;;;;;;;0.00;0.00;;;;;;;6.30;100.00;98584.88;4976009;28;20030;-78
2023/03/24 07:06:12;;;;;;;0.00;0.00;;;;;;;6.45;100.00;98579.34;5003734;28;20457;-76
2023/03/24 07:08:40;;;;;;;0.00;0.00;;;;;;;6.59;100.00;98574.06;4990683;28;20090;-76
2023/03/24 07:11:16;;;;;;;0.00;0.00;;;;;;;6.62;100.00;98572.69;4965615;28;20074;-75
2023/03/24 07:13:41;;;;;;;0.00;0.00;;;;;;;6.73;100.00;98582.38;4989030;28;20395;-75
2023/03/24 07:16:14;;;;;;;0.00;0.00;;;;;;;6.69;100.00;98578.59;4970055;28;20027;-75
2023/03/24 07:18:40;;;;;;;0.00;0.00;;;;;;;6.72;100.00;98578.03;5007258;28;20472;-75
2023/03/24 07:21:06;;;;;;;0.00;0.00;;;;;;;6.87;100.00;98600.72;4970942;28;20038;-75
2023/03/24 07:23:34;;;;;;;0.00;0.00;;;;;;;6.93;100.00;98594.13;5001399;28;20026;-76
2023/03/24 07:26:02;;;;;;;0.00;0.00;;;;;;;7.03;100.00;98574.19;4991099;28;20034;-75
2023/03/24 07:28:30;;;;;;;0.00;0.00;;;;;;;7.24;100.00;98607.41;4988153;28;20711;-76
2023/03/24 07:30:55;;;;;;;0.00;0.00;;;;;;;7.25;100.00;98584.56;4976123;28;20044;-75
2023/03/24 07:33:23;;;;;;;0.00;0.00;;;;;;;7.39;100.00;98596.38;4966036;28;20027;-74
2023/03/24 07:35:55;;;;;;;0.00;0.00;;;;;;;7.48;100.00;98594.63;4964700;28;20084;-75
2023/03/24 07:38:21;;;;;;;0.00;0.00;;;;;;;7.60;100.00;98590.69;4997291;28;20088;-76
2023/03/24 07:40:47;;;;;;;0.10;0.10;;;;;;;7.68;100.00;98598.19;5004773;28;20033;-74
2023/03/24 07:43:12;;;;;;;0.00;0.00;;;;;;;7.80;100.00;98600.50;4973017;28;20441;-74
2023/03/24 07:45:37;;;;;;;0.00;0.00;;;;;;;7.86;100.00;98602.84;4984942;28;20026;-77
2023/03/24 07:48:03;;;;;;;0.00;0.00;;;;;;;8.00;100.00;98604.84;4989264;28;20182;-77
2023/03/24 07:50:36;;;;;;;0.00;0.00;;;;;;;8.20;100.00;98615.44;4991375;28;20030;-79
2023/03/24 07:53:01;;;;;;;0.00;0.00;;;;;;;8.62;100.00;98647.56;5000238;28;20022;-78
2023/03/24 07:55:32;;;;;;;0.10;0.10;;;;;;;8.81;100.00;98621.06;4986284;28;20550;-77
2023/03/24 07:57:59;;;;;;;0.00;0.00;;;;;;;9.00;100.00;98621.03;4962820;28;20384;-77
2023/03/24 08:00:28;;;;;;;0.10;0.10;;;;;;;8.96;100.00;98608.28;4989743;28;20026;-81
2023/03/24 08:02:53;;;;;;;0.00;0.00;;;;;;;9.07;100.00;98620.66;4966069;28;20030;-77
2023/03/24 08:05:21;;;;;;;0.00;0.00;;;;;;;9.34;100.00;98629.97;4966428;28;20032;-78
2023/03/24 08:07:52;;;;;;;0.00;0.00;;;;;;;9.91;100.00;98633.19;5001192;28;20080;-78
2023/03/24 08:10:23;;;;;;;0.00;0.00;;;;;;;11.19;100.00;98631.31;5018012;28;20021;-79
2023/03/24 08:12:52;;;;;;;0.00;0.00;;;;;;;12.18;100.00;98641.19;5009511;28;20009;-78
2023/03/24 08:15:18;;;;;;;0.00;0.00;;;;;;;13.13;100.00;98650.53;4989388;28;20025;-78
2023/03/24 08:17:44;;;;;;;0.00;0.00;;;;;;;13.60;95.23;98650.53;5001195;28;20387;-77
2023/03/24 08:20:14;;;;;;;0.00;0.00;;;;;;;14.85;88.76;98653.00;4970805;28;20030;-78
2023/03/24 08:22:43;;;;;;;0.00;0.00;;;;;;;15.34;76.66;98701.91;4968950;28;20504;-78
2023/03/24 08:25:11;;;;;;;0.00;0.00;;;;;;;15.93;78.28;98664.13;4989530;28;20028;-76
2023/03/24 08:27:38;;;;;;;0.00;0.00;;;;;;;15.95;72.56;98661.88;4986446;28;20026;-75
2023/03/24 08:30:08;;;;;;;0.00;0.00;;;;;;;15.80;75.11;98661.41;4983699;28;20025;-76
2023/03/24 08:32:34;;;;;;;0.00;0.00;;;;;;;16.49;72.28;98667.06;4996347;28;20023;-77
2023/03/24 08:35:26;;;;;;;0.00;0.00;;;;;;;17.22;66.63;98673.50;4981564;28;20030;-79
2023/03/24 08:38:00;;;;;;;0.00;0.00;;;;;;;17.50;63.78;98689.22;4983796;28;20073;-79
2023/03/24 08:40:35;;;;;;;0.00;0.00;;;;;;;17.84;63.38;98680.59;4999485;28;20026;-79
2023/03/24 08:43:07;;;;;;;0.00;0.00;;;;;;;17.85;60.17;98696.03;4987684;28;20045;-78
2023/03/24 08:45:36;;;;;;;0.00;0.00;;;;;;;18.47;60.26;98685.25;4979164;28;20076;-77
2023/03/24 08:48:04;;;;;;;0.00;0.00;;;;;;;17.82;58.35;98678.19;4990574;28;20017;-78
2023/03/24 08:50:35;;;;;;;0.00;0.00;;;;;;;15.81;64.85;98685.06;4956599;28;20041;-78
2023/03/24 08:53:04;;;;;;;0.00;0.00;;;;;;;15.52;64.96;98722.63;5001781;28;20105;-77
2023/03/24 08:55:29;;;;;;;0.00;0.00;;;;;;;16.30;64.46;98688.94;4994214;28;20138;-80
2023/03/24 08:57:55;;;;;;;0.00;0.00;;;;;;;16.85;61.39;98698.50;4988221;28;20109;-80
2023/03/24 09:00:24;;;;;;;0.00;0.00;;;;;;;16.34;61.86;98700.88;4993245;28;20057;-76
2023/03/24 09:02:52;;;;;;;0.00;0.00;;;;;;;16.61;61.21;98687.50;4997174;28;20108;-77
2023/03/24 09:05:19;;;;;;;0.00;0.00;;;;;;;15.51;63.99;98693.47;4991968;28;20062;-76
2023/03/24 09:07:45;;;;;;;0.00;0.00;;;;;;;15.57;64.10;98690.50;4985395;28;20030;-77
2023/03/24 09:10:12;;;;;;;0.00;0.00;;;;;;;17.45;59.80;98689.50;4975388;28;20018;-77
2023/03/24 09:12:46;;;;;;;0.00;0.00;;;;;;;20.01;51.09;98698.53;4987551;28;20535;-78
2023/03/24 09:15:13;;;;;;;0.00;0.00;;;;;;;21.27;47.20;98693.91;5008810;28;20438;-79
2023/03/24 09:17:40;;;;;;;0.00;0.00;;;;;;;22.21;41.98;98700.38;4989644;28;20033;-78
2023/03/24 09:20:13;;;;;;;0.00;0.00;;;;;;;23.05;39.09;98747.84;4987090;28;20352;-78
2023/03/24 09:22:41;;;;;;;0.00;0.00;;;;;;;22.24;39.15;98727.44;5006195;28;20038;-78
2023/03/24 09:25:09;;;;;;;0.00;0.00;;;;;;;21.46;40.46;98704.06;4998042;28;20036;-78
2023/03/24 09:27:36;;;;;;;0.00;0.00;;;;;;;19.31;43.16;98711.53;5007215;28;20030;-79
2023/03/24 09:30:03;;;;;;;0.00;0.00;;;;;;;16.31;50.03;98704.31;4986798;28;20890;-80
2023/03/24 09:32:29;;;;;;;0.00;0.00;;;;;;;14.41;56.51;98715.75;4981038;28;20080;-78
2023/03/24 09:34:57;;;;;;;0.00;0.00;;;;;;;13.69;60.79;98704.66;4982380;28;20022;-78
2023/03/24 09:37:23;;;;;;;0.00;0.00;;;;;;;13.63;63.01;98698.53;4973150;28;20038;-77
2023/03/24 09:39:54;;;;;;;0.00;0.00;;;;;;;13.27;63.44;98696.97;4996499;28;20479;-77
2023/03/24 09:42:25;;;;;;;0.00;0.00;;;;;;;13.19;64.70;98703.31;4988062;28;20054;-77
2023/03/24 09:45:06;;;;;;;0.00;0.00;;;;;;;12.85;64.81;98697.53;4987253;28;20049;-78
2023/03/24 09:47:40;;;;;;;0.00;0.00;;;;;;;12.73;66.24;98711.06;4983891;28;20022;-78
2023/03/24 09:50:21;;;;;;;0.00;0.00;;;;;;;11.91;69.24;98686.84;4993638;28;20044;-77
2023/03/24 09:52:54;;;;;;;0.00;0.00;;;;;;;11.54;70.91;98691.72;4992350;28;20034;-78
2023/03/24 09:55:29;;;;;;;0.10;0.10;;;;;;;11.28;71.69;98692.38;4996896;28;20552;-77
2023/03/24 09:58:07;;;;;;;0.00;0.00;;;;;;;11.15;72.73;98685.84;4978296;28;20061;-77
2023/03/24 10:00:39;;;;;;;0.00;0.00;;;;;;;11.91;70.82;98677.84;4999148;28;20041;-77
2023/03/24 10:03:24;;;;;;;;;;;;;;;;;;;;;
2023/03/24 10:05:59;;;;;;;;;;;;;;;13.29;66.54;98691.97;4998121;28;20022;-79
2023/03/24 10:08:32;;;;;;;0.00;0.00;;;;;;;12.95;66.71;98681.84;4981782;28;20000;-75
2023/03/24 10:11:05;;;;;;;0.00;0.00;;;;;;;13.42;67.00;98674.53;4987610;28;20030;-78
2023/03/24 10:13:49;;;;;;;0.00;0.00;;;;;;;14.79;60.53;98710.19;4988302;28;20391;-78
2023/03/24 10:16:45;;;;;;;0.00;0.00;;;;;;;17.30;56.24;98687.50;5008618;28;20039;-77
2023/03/24 10:19:32;;;;;;;0.00;0.00;;;;;;;22.06;43.08;98675.19;5006115;28;20044;-78
2023/03/24 10:21:57;;;;;;;0.00;0.00;;;;;;;23.50;39.48;98686.28;4981270;28;20029;-76
2023/03/24 10:24:54;;;;;;;0.00;0.00;;;;;;;19.52;46.22;98682.63;5001656;28;20029;-78
2023/03/24 10:27:30;;;;;;;0.00;0.00;;;;;;;16.56;53.01;98667.28;5007178;28;20022;-77
2023/03/24 10:30:10;;;;;;;0.00;0.00;;;;;;;14.77;57.38;98659.38;4994079;28;20545;-78
2023/03/24 10:32:37;;;;;;;0.00;0.00;;;;;;;13.73;62.91;98662.47;4999213;28;20022;-78
2023/03/24 10:35:16;;;;;;;0.00;0.00;;;;;;;12.87;66.74;98665.06;4992772;28;20030;-77
2023/03/24 10:37:41;;;;;;;0.00;0.00;;;;;;;12.13;71.14;98649.56;4964631;28;20392;-74
2023/03/24 10:40:33;;;;;;;0.00;0.00;;;;;;;11.52;80.03;98655.63;5004831;28;20037;-75
2023/03/24 10:43:02;;;;;;;0.00;0.00;;;;;;;11.15;88.55;98734.28;4966517;28;20074;-76
2023/03/24 10:45:55;;;;;;;0.00;0.00;;;;;;;10.64;92.30;98667.97;4984754;28;20018;-78
2023/03/24 10:48:39;;;;;;;0.00;0.00;;;;;;;9.91;96.02;98679.59;4961021;28;20424;-76
2023/03/24 10:51:17;;;;;;;0.00;0.00;;;;;;;9.31;100.00;98657.84;4979937;28;20034;-77
2023/03/24 10:53:50;;;;;;;0.00;0.00;;;;;;;9.05;100.00;98680.09;4986049;28;20272;-76
2023/03/24 10:56:36;;;;;;;0.00;0.00;;;;;;;8.69;100.00;98672.53;4963771;28;20065;-77
2023/03/24 10:59:07;;;;;;;0.00;0.00;;;;;;;8.55;100.00;98702.41;4982451;28;20392;-75
2023/03/24 11:01:51;;;;;;;0.00;0.00;;;;;;;8.04;100.00;98693.81;4983800;28;20385;-76
2023/03/24 11:04:20;;;;;;;0.00;0.00;;;;;;;7.34;100.00;98665.22;4964592;28;20026;-76
2023/03/24 11:07:25;;;;;;;;;;;;;;;;;;;;;
2023/03/24 11:10:03;;;;;;;0.10;0.10;;;;;;;6.92;100.00;98696.59;4985185;28;20029;-77
2023/03/24 11:12:36;;;;;;;0.00;0.00;;;;;;;6.98;100.00;98683.78;4966495;28;20420;-77
2023/03/24 11:15:15;;;;;;;0.00;0.00;;;;;;;7.11;100.00;98682.28;4985051;28;20029;-77
2023/03/24 11:17:41;;;;;;;0.00;0.00;;;;;;;7.20;100.00;98671.59;4988158;28;20326;-76
2023/03/24 11:20:17;;;;;;;0.10;0.10;;;;;;;7.30;100.00;98668.78;4988334;28;20447;-76
2023/03/24 11:23:05;;;;;;;0.00;0.00;;;;;;;7.71;100.00;98681.97;4969878;28;20116;-77
2023/03/24 11:25:36;;;;;;;0.00;0.00;;;;;;;8.17;100.00;98680.56;4983073;28;20412;-77
2023/03/24 11:28:07;;;;;;;0.00;0.00;;;;;;;8.82;100.00;98674.50;4984566;28;20033;-76
2023/03/24 11:30:50;;;;;;;0.00;0.00;;;;;;;11.98;100.00;98667.25;4987925;28;20460;-76
2023/03/24 11:33:27;;;;;;;0.10;0.10;;;;;;;17.28;76.37;98690.63;4994096;28;20372;-78
2023/03/24 11:35:55;;;;;;;0.00;0.00;;;;;;;19.28;62.42;98689.31;4971753;28;20183;-77
2023/03/24 11:38:30;;;;;;;0.00;0.00;;;;;;;16.52;66.06;98695.94;4973851;28;20045;-83
2023/03/24 11:41:03;;;;;;;0.00;0.00;;;;;;;14.15;74.28;98675.50;4973703;28;20133;-77
2023/03/24 11:43:29;;;;;;;0.00;0.00;;;;;;;12.71;82.83;98674.94;5006125;28;20427;-76
2023/03/24 11:46:09;;;;;;;0.00;0.00;;;;;;;11.99;89.87;98669.69;4981435;28;20022;-77
2023/03/24 11:48:57;;;;;;;0.00;0.00;;;;;;;12.32;94.31;98674.72;4983976;28;20060;-77
2023/03/24 11:51:33;;;;;;;0.00;0.00;;;;;;;13.63;93.46;98665.56;4983447;28;20022;-77
2023/03/24 11:54:03;;;;;;;0.00;0.00;;;;;;;17.95;76.94;98662.34;4991233;28;20022;-77
2023/03/24 11:56:37;;;;;;;0.00;0.00;;;;;;;18.31;68.59;98650.13;4987199;28;20025;-78
2023/03/24 11:59:14;;;;;;;0.00;0.00;;;;;;;16.67;72.03;98653.78;4985997;28;20046;-79
2023/03/24 12:02:15;;;;;;;0.00;0.00;;;;;;;14.76;75.01;98635.75;4983401;28;20094;-79